Time;durP1;ratioP1;P1;durP2;ratioP2;P2;SDS_P1;SDS_P2;PMS_P1;PMS_P2;Temp;Humidity;BMP_temperature;BMP_pressure;BME280_temperature;BME280_humidity;BME280_pressure;Samples;Min_cycle;Max_cycle;Signal;HPM_P1;HPM_P2
2022/03/09 00:02:11;;;;;;;5.10;3.70;;;;;;;;;;5014951;28;20418;-80
2022/03/09 00:04:37;;;;;;;5.10;4.00;;;;;;;;;;4997561;28;20466;-82
2022/03/09 00:07:04;;;;;;;6.30;3.60;;;;;;;;;;5015049;28;20514;-82
2022/03/09 00:09:30;;;;;;;4.90;3.50;;;;;;;;;;4997399;28;20426;-86
2022/03/09 00:11:55;;;;;;;4.37;2.90;;;;;;;;;;4997524;28;20413;-81
2022/03/09 00:14:21;;;;;;;9.33;3.13;;;;;;;;;;5014716;28;20483;-83
2022/03/09 00:16:47;;;;;;;5.10;3.20;;;;;;;;;;4997322;28;20825;-81
2022/03/09 00:19:13;;;;;;;5.93;4.73;;;;;;;;;;5014979;28;20564;-83
2022/03/09 00:21:39;;;;;;;5.57;3.67;;;;;;;;;;5014859;28;20442;-82
2022/03/09 00:24:05;;;;;;;4.77;3.73;;;;;;;;;;5014716;28;20484;-83
2022/03/09 00:26:31;;;;;;;5.50;3.77;;;;;;;;;;5014702;28;20410;-82
2022/03/09 00:28:57;;;;;;;4.27;3.30;;;;;;;;;;5014432;28;20414;-82
2022/03/09 00:31:23;;;;;;;4.13;3.73;;;;;;;;;;5014331;28;20434;-82
2022/03/09 00:33:49;;;;;;;11.73;3.80;;;;;;;;;;5014623;28;20826;-83
2022/03/09 00:36:15;;;;;;;4.77;3.33;;;;;;;;;;5014538;28;20399;-83
2022/03/09 00:38:41;;;;;;;6.90;3.30;;;;;;;;;;4996657;28;21122;-82
2022/03/09 00:41:07;;;;;;;7.83;3.87;;;;;;;;;;5014393;28;20793;-82
2022/03/09 00:43:33;;;;;;;6.83;4.60;;;;;;;;;;5013844;28;20493;-83
2022/03/09 00:46:02;;;;;;;7.93;3.93;;;;;;;;;;4996789;28;20420;-82
2022/03/09 00:48:27;;;;;;;8.93;3.57;;;;;;;;;;4996703;28;20426;-81
2022/03/09 00:50:53;;;;;;;6.27;3.97;;;;;;;;;;5014165;28;20403;-83
2022/03/09 00:53:19;;;;;;;6.10;4.50;;;;;;;;;;5014200;28;20960;-82
2022/03/09 00:55:45;;;;;;;10.13;6.00;;;;;;;;;;5014249;28;20835;-83
2022/03/09 00:58:11;;;;;;;5.30;3.80;;;;;;;;;;5012813;28;20476;-82
2022/03/09 01:00:38;;;;;;;5.40;3.50;;;;;;;;;;5014120;28;20409;-82
2022/03/09 01:03:04;;;;;;;5.07;4.07;;;;;;;;;;4996346;28;20461;-82
2022/03/09 01:05:30;;;;;;;5.80;3.33;;;;;;;;;;5014076;28;20773;-81
2022/03/09 01:07:56;;;;;;;4.80;4.30;;;;;;;;;;4996371;28;20469;-82
2022/03/09 01:10:22;;;;;;;6.57;4.10;;;;;;;;;;5013944;28;20414;-83
2022/03/09 01:12:48;;;;;;;6.30;3.90;;;;;;;;;;5013815;28;20402;-79
2022/03/09 01:15:15;;;;;;;6.10;3.93;;;;;;;;;;5013556;28;20484;-80
2022/03/09 01:17:40;;;;;;;6.30;4.00;;;;;;;;;;5013848;28;20752;-82
2022/03/09 01:20:10;;;;;;;4.37;3.80;;;;;;;;;;5013806;28;20479;-83
2022/03/09 01:22:36;;;;;;;9.90;4.10;;;;;;;;;;5013758;28;20414;-83
2022/03/09 01:25:02;;;;;;;5.70;4.03;;;;;;;;;;5013648;28;20531;-83
2022/03/09 01:27:28;;;;;;;3.80;3.20;;;;;;;;;;5013527;28;20406;-82
2022/03/09 01:29:54;;;;;;;8.33;5.33;;;;;;;;;;5013384;28;20414;-82
2022/03/09 01:32:21;;;;;;;4.53;3.70;;;;;;;;;;4996052;28;20433;-82
2022/03/09 01:34:47;;;;;;;6.60;4.67;;;;;;;;;;5013374;28;20807;-83
2022/03/09 01:37:13;;;;;;;5.80;3.83;;;;;;;;;;4995835;28;20408;-83
2022/03/09 01:39:39;;;;;;;7.00;4.53;;;;;;;;;;5013480;28;20777;-82
2022/03/09 01:42:05;;;;;;;7.43;4.10;;;;;;;;;;5013305;28;20458;-84
2022/03/09 01:44:31;;;;;;;5.57;4.97;;;;;;;;;;5013042;28;20559;-81
2022/03/09 01:46:57;;;;;;;4.50;3.47;;;;;;;;;;5013592;28;20418;-83
2022/03/09 01:49:23;;;;;;;5.47;3.40;;;;;;;;;;5013466;28;20421;-83
2022/03/09 01:51:51;;;;;;;7.10;3.80;;;;;;;;;;4995848;28;20881;-83
2022/03/09 01:54:17;;;;;;;8.10;4.53;;;;;;;;;;5013223;28;20440;-83
2022/03/09 01:56:43;;;;;;;9.43;4.23;;;;;;;;;;5013369;28;20413;-83
2022/03/09 01:59:10;;;;;;;7.33;5.30;;;;;;;;;;5012799;28;20473;-84
2022/03/09 02:01:36;;;;;;;5.10;4.60;;;;;;;;;;5013217;28;20411;-83
2022/03/09 02:04:03;;;;;;;6.00;4.00;;;;;;;;;;5013198;28;20472;-83
2022/03/09 02:06:31;;;;;;;6.53;4.43;;;;;;;;;;5013227;28;20406;-83
2022/03/09 02:11:42;;;;;;;5.47;4.40;;;;;;;;;;5017373;28;20402;-83
2022/03/09 02:14:25;;;;;;;7.57;3.80;;;;;;;;;;4998921;28;20422;-83
2022/03/09 02:16:51;;;;;;;7.70;4.30;;;;;;;;;;5017084;28;20420;-83
2022/03/09 02:19:17;;;;;;;8.30;5.43;;;;;;;;;;4999439;28;20831;-83
2022/03/09 02:21:44;;;;;;;9.70;5.40;;;;;;;;;;5017083;28;20442;-83
2022/03/09 02:24:19;;;;;;;6.47;3.87;;;;;;;;;;5016905;28;20487;-83
2022/03/09 02:26:45;;;;;;;5.37;3.80;;;;;;;;;;5016871;28;20405;-83
2022/03/09 02:29:13;;;;;;;4.53;4.00;;;;;;;;;;4999204;28;20432;-83
2022/03/09 02:31:39;;;;;;;9.03;4.50;;;;;;;;;;4999334;28;20504;-83
2022/03/09 02:34:05;;;;;;;6.67;4.50;;;;;;;;;;5016993;28;20493;-83
2022/03/09 02:36:31;;;;;;;8.40;4.90;;;;;;;;;;5016984;28;20414;-83
2022/03/09 02:38:58;;;;;;;6.50;4.23;;;;;;;;;;5016940;28;20426;-83
2022/03/09 02:41:24;;;;;;;7.50;4.90;;;;;;;;;;5016488;28;20414;-83
2022/03/09 02:43:50;;;;;;;10.40;5.87;;;;;;;;;;4998676;28;20480;-83
2022/03/09 02:46:16;;;;;;;5.33;3.80;;;;;;;;;;5016623;28;20416;-83
2022/03/09 02:48:42;;;;;;;6.23;5.10;;;;;;;;;;4999095;28;20479;-82
2022/03/09 02:51:08;;;;;;;5.50;4.60;;;;;;;;;;5016703;28;20600;-82
2022/03/09 02:53:34;;;;;;;4.67;3.87;;;;;;;;;;5016419;28;20424;-82
2022/03/09 02:56:00;;;;;;;6.67;4.30;;;;;;;;;;5016385;28;20409;-82
2022/03/09 02:58:26;;;;;;;4.47;4.07;;;;;;;;;;5016005;28;20421;-82
2022/03/09 03:00:51;;;;;;;5.43;4.87;;;;;;;;;;5016261;28;20413;-83
2022/03/09 03:03:17;;;;;;;6.87;5.13;;;;;;;;;;5016194;28;20472;-83
2022/03/09 03:05:43;;;;;;;5.13;4.40;;;;;;;;;;5016213;28;20512;-84
2022/03/09 03:08:09;;;;;;;7.43;4.60;;;;;;;;;;5016140;28;20870;-83
2022/03/09 03:10:35;;;;;;;9.70;5.30;;;;;;;;;;5016037;28;20424;-84
2022/03/09 03:13:01;;;;;;;7.40;5.10;;;;;;;;;;5015626;28;20415;-83
2022/03/09 03:15:33;;;;;;;5.30;4.70;;;;;;;;;;5015967;28;20417;-81
2022/03/09 03:17:59;;;;;;;4.40;3.63;;;;;;;;;;5016038;28;20410;-81
2022/03/09 03:20:25;;;;;;;6.97;4.53;;;;;;;;;;5015542;28;20433;-83
2022/03/09 03:22:51;;;;;;;8.60;4.83;;;;;;;;;;5015163;28;20447;-82
2022/03/09 03:25:20;;;;;;;7.80;5.00;;;;;;;;;;5015878;28;20448;-82
2022/03/09 03:27:58;;;;;;;7.60;5.07;;;;;;;;;;5015630;28;20414;-81
2022/03/09 03:30:24;;;;;;;7.17;4.60;;;;;;;;;;5015586;28;20421;-83
2022/03/09 03:32:50;;;;;;;6.80;5.17;;;;;;;;;;5015588;28;20485;-83
2022/03/09 03:35:16;;;;;;;6.43;4.63;;;;;;;;;;5015773;28;20422;-82
2022/03/09 03:37:45;;;;;;;4.53;3.43;;;;;;;;;;5014901;28;20444;-82
2022/03/09 03:40:11;;;;;;;6.97;3.93;;;;;;;;;;5014397;28;20410;-82
2022/03/09 03:42:37;;;;;;;9.30;4.40;;;;;;;;;;5014459;28;20832;-83
2022/03/09 03:45:03;;;;;;;5.53;3.70;;;;;;;;;;4997640;28;20840;-83
2022/03/09 03:47:29;;;;;;;8.33;3.43;;;;;;;;;;5015687;28;20957;-83
2022/03/09 03:49:55;;;;;;;6.80;4.83;;;;;;;;;;5015893;28;20449;-84
2022/03/09 03:52:21;;;;;;;6.30;4.03;;;;;;;;;;5015591;28;20413;-83
2022/03/09 03:54:47;;;;;;;6.20;4.13;;;;;;;;;;5015538;28;20422;-83
2022/03/09 03:57:13;;;;;;;5.13;3.70;;;;;;;;;;5015465;28;20438;-82
2022/03/09 03:59:39;;;;;;;7.33;4.30;;;;;;;;;;5015462;28;20426;-83
2022/03/09 04:02:05;;;;;;;6.90;4.60;;;;;;;;;;5015869;28;20427;-83
2022/03/09 04:04:31;;;;;;;7.20;3.93;;;;;;;;;;5015570;28;20465;-82
2022/03/09 04:06:57;;;;;;;7.23;4.30;;;;;;;;;;5015435;28;20404;-84
2022/03/09 04:09:22;;;;;;;6.13;3.90;;;;;;;;;;5015096;28;20751;-83
2022/03/09 04:11:48;;;;;;;6.03;3.83;;;;;;;;;;5015037;28;20941;-82
2022/03/09 04:14:14;;;;;;;5.07;3.80;;;;;;;;;;5014698;28;20497;-83
2022/03/09 04:16:41;;;;;;;9.20;3.93;;;;;;;;;;5014986;28;20756;-83
2022/03/09 04:19:07;;;;;;;6.27;4.57;;;;;;;;;;5015042;28;20413;-84
2022/03/09 04:21:33;;;;;;;8.40;3.33;;;;;;;;;;5014945;28;20421;-84
2022/03/09 04:23:59;;;;;;;4.63;3.50;;;;;;;;;;5014862;28;20825;-84
2022/03/09 04:26:25;;;;;;;6.90;4.60;;;;;;;;;;4997199;28;20414;-84
2022/03/09 04:28:51;;;;;;;3.63;3.20;;;;;;;;;;5014291;28;20416;-84
2022/03/09 04:31:17;;;;;;;4.60;3.63;;;;;;;;;;4997152;28;20413;-83
2022/03/09 04:33:43;;;;;;;6.83;3.90;;;;;;;;;;5014461;28;20432;-84
2022/03/09 04:36:09;;;;;;;7.20;4.60;;;;;;;;;;5014513;28;20936;-84
2022/03/09 04:38:35;;;;;;;7.37;3.50;;;;;;;;;;5014531;28;20410;-84
2022/03/09 04:41:01;;;;;;;6.53;3.93;;;;;;;;;;5014448;28;20415;-83
2022/03/09 04:43:27;;;;;;;4.83;3.63;;;;;;;;;;5013857;28;20963;-84
2022/03/09 04:45:53;;;;;;;8.47;3.80;;;;;;;;;;5014227;28;20423;-83
2022/03/09 04:48:20;;;;;;;5.27;4.07;;;;;;;;;;5014308;28;20430;-86
2022/03/09 04:50:45;;;;;;;7.43;4.00;;;;;;;;;;5014385;28;20773;-86
2022/03/09 04:53:11;;;;;;;7.10;4.10;;;;;;;;;;5014329;28;20415;-84
2022/03/09 04:55:37;;;;;;;6.00;3.40;;;;;;;;;;5014181;28;20413;-86
2022/03/09 04:58:03;;;;;;;5.13;4.27;;;;;;;;;;5013845;28;20444;-84
2022/03/09 05:00:29;;;;;;;6.80;4.00;;;;;;;;;;5014167;28;20424;-84
2022/03/09 05:02:55;;;;;;;5.10;4.60;;;;;;;;;;5014158;28;20415;-85
2022/03/09 05:05:21;;;;;;;8.23;3.83;;;;;;;;;;5014141;28;20419;-84
2022/03/09 05:07:47;;;;;;;5.83;3.77;;;;;;;;;;4996632;28;20928;-84
2022/03/09 05:10:13;;;;;;;8.63;4.83;;;;;;;;;;5014126;28;20420;-86
2022/03/09 05:12:39;;;;;;;4.43;3.70;;;;;;;;;;5013653;28;20412;-85
2022/03/09 05:15:05;;;;;;;6.17;4.00;;;;;;;;;;5013936;28;20463;-86
2022/03/09 05:17:31;;;;;;;5.57;4.13;;;;;;;;;;5013966;28;20414;-85
2022/03/09 05:19:57;;;;;;;4.33;3.93;;;;;;;;;;5013793;28;20835;-86
2022/03/09 05:22:23;;;;;;;11.13;4.67;;;;;;;;;;5013966;28;20439;-85
2022/03/09 05:24:49;;;;;;;6.40;4.30;;;;;;;;;;5013759;28;20469;-85
2022/03/09 05:27:15;;;;;;;5.87;4.17;;;;;;;;;;5013337;28;20768;-86
2022/03/09 05:29:41;;;;;;;7.23;3.57;;;;;;;;;;5013874;28;20416;-84
2022/03/09 05:32:07;;;;;;;4.70;4.23;;;;;;;;;;5013524;28;20421;-85
2022/03/09 05:34:33;;;;;;;6.13;4.43;;;;;;;;;;5013719;28;20872;-85
2022/03/09 05:36:59;;;;;;;6.70;3.20;;;;;;;;;;5013720;28;20417;-84
2022/03/09 05:39:25;;;;;;;5.83;3.60;;;;;;;;;;5017236;28;20774;-86
2022/03/09 05:41:51;;;;;;;7.60;4.77;;;;;;;;;;5013239;28;20472;-85
2022/03/09 05:44:17;;;;;;;5.60;4.20;;;;;;;;;;4995224;28;20477;-85
2022/03/09 05:46:43;;;;;;;6.47;4.23;;;;;;;;;;4995845;28;20502;-85
2022/03/09 05:49:09;;;;;;;5.63;3.97;;;;;;;;;;5013501;28;20519;-85
2022/03/09 05:51:34;;;;;;;4.93;4.50;;;;;;;;;;5013432;28;20465;-84
2022/03/09 05:54:02;;;;;;;5.93;4.60;;;;;;;;;;4995722;28;20516;-85
2022/03/09 05:56:28;;;;;;;7.83;4.50;;;;;;;;;;5013389;28;20905;-85
2022/03/09 05:58:54;;;;;;;6.50;4.07;;;;;;;;;;4995435;28;20418;-85
2022/03/09 06:01:21;;;;;;;5.47;4.03;;;;;;;;;;4995820;28;20456;-85
2022/03/09 06:03:47;;;;;;;9.10;6.20;;;;;;;;;;5013192;28;20458;-85
2022/03/09 06:06:13;;;;;;;6.33;4.17;;;;;;;;;;5013316;28;20943;-85
2022/03/09 06:08:39;;;;;;;5.30;4.13;;;;;;;;;;4995788;28;20415;-85
2022/03/09 06:11:04;;;;;;;7.30;5.13;;;;;;;;;;5013190;28;20511;-84
2022/03/09 06:13:30;;;;;;;6.20;4.27;;;;;;;;;;5012888;28;20413;-85
2022/03/09 06:15:59;;;;;;;4.93;3.80;;;;;;;;;;5012994;28;20421;-83
2022/03/09 06:18:25;;;;;;;5.80;5.00;;;;;;;;;;5013136;28;20409;-84
2022/03/09 06:20:51;;;;;;;7.57;5.17;;;;;;;;;;5013222;28;20407;-84
2022/03/09 06:23:18;;;;;;;5.70;4.33;;;;;;;;;;5012950;28;20475;-83
2022/03/09 06:25:44;;;;;;;5.17;3.63;;;;;;;;;;5013032;28;20420;-83
2022/03/09 06:28:10;;;;;;;5.23;4.20;;;;;;;;;;5012821;28;20963;-83
2022/03/09 06:30:36;;;;;;;8.00;5.30;;;;;;;;;;4995431;28;20424;-82
2022/03/09 06:33:02;;;;;;;9.00;4.93;;;;;;;;;;5012988;28;20471;-84
2022/03/09 06:35:28;;;;;;;6.10;5.10;;;;;;;;;;5013069;28;20419;-87
2022/03/09 06:37:54;;;;;;;9.63;4.43;;;;;;;;;;5012931;28;20424;-84
2022/03/09 06:40:21;;;;;;;9.50;5.63;;;;;;;;;;4995425;28;20425;-85
2022/03/09 06:42:47;;;;;;;7.00;4.27;;;;;;;;;;5012334;28;20460;-84
2022/03/09 06:45:13;;;;;;;5.97;3.83;;;;;;;;;;4995354;28;20482;-83
2022/03/09 06:47:39;;;;;;;6.10;5.10;;;;;;;;;;5012793;28;20421;-82
2022/03/09 06:50:09;;;;;;;10.53;4.67;;;;;;;;;;4994935;28;20429;-83
2022/03/09 06:52:35;;;;;;;8.57;5.40;;;;;;;;;;5012099;28;21073;-83
2022/03/09 06:55:04;;;;;;;7.80;5.10;;;;;;;;;;5012984;28;20551;-83
2022/03/09 06:57:31;;;;;;;10.57;5.70;;;;;;;;;;5016009;28;20420;-83
2022/03/09 06:59:57;;;;;;;7.30;5.00;;;;;;;;;;5016276;28;20970;-83
2022/03/09 07:02:23;;;;;;;5.73;4.30;;;;;;;;;;5016223;28;20428;-83
2022/03/09 07:04:49;;;;;;;8.07;4.40;;;;;;;;;;5016267;28;20827;-82
2022/03/09 07:07:15;;;;;;;5.43;2.70;;;;;;;;;;4998289;28;20514;-77
2022/03/09 07:09:41;;;;;;;6.30;4.33;;;;;;;;;;5015692;28;20470;-77
2022/03/09 07:12:07;;;;;;;4.70;3.40;;;;;;;;;;5015854;28;20479;-77
2022/03/09 07:14:34;;;;;;;8.27;4.40;;;;;;;;;;5016190;28;20775;-77
2022/03/09 07:17:00;;;;;;;10.67;3.97;;;;;;;;;;5016078;28;20444;-77
2022/03/09 07:19:26;;;;;;;5.47;4.30;;;;;;;;;;5015704;28;20478;-77
2022/03/09 07:21:53;;;;;;;8.33;4.13;;;;;;;;;;5016008;28;20405;-77
2022/03/09 07:24:19;;;;;;;5.80;4.00;;;;;;;;;;5014545;28;20503;-78
2022/03/09 07:26:45;;;;;;;4.70;3.90;;;;;;;;;;5014660;28;20447;-78
2022/03/09 07:29:15;;;;;;;5.43;3.77;;;;;;;;;;5015122;28;20457;-78
2022/03/09 07:31:45;;;;;;;7.03;3.63;;;;;;;;;;5015836;28;20445;-78
2022/03/09 07:34:11;;;;;;;4.37;3.20;;;;;;;;;;5015844;28;20403;-78
2022/03/09 07:36:38;;;;;;;5.63;3.80;;;;;;;;;;5015745;28;20415;-80
2022/03/09 07:39:04;;;;;;;6.90;4.60;;;;;;;;;;5015783;28;20412;-80
2022/03/09 07:41:30;;;;;;;4.90;3.80;;;;;;;;;;5015349;28;20419;-78
2022/03/09 07:43:57;;;;;;;7.53;3.53;;;;;;;;;;5015234;28;20502;-78
2022/03/09 07:46:23;;;;;;;4.37;3.00;;;;;;;;;;5015506;28;20425;-79
2022/03/09 07:48:49;;;;;;;4.53;2.87;;;;;;;;;;5015429;28;20513;-78
2022/03/09 07:51:15;;;;;;;4.97;3.97;;;;;;;;;;5015493;28;20405;-78
2022/03/09 07:53:42;;;;;;;5.43;3.43;;;;;;;;;;5015440;28;20405;-78
2022/03/09 07:56:11;;;;;;;5.20;4.63;;;;;;;;;;5015489;28;20410;-80
2022/03/09 07:58:38;;;;;;;8.13;4.70;;;;;;;;;;5014896;28;20413;-78
2022/03/09 08:01:04;;;;;;;5.30;4.13;;;;;;;;;;5015460;28;20417;-78
2022/03/09 08:03:30;;;;;;;6.10;3.67;;;;;;;;;;4997608;28;20461;-78
2022/03/09 08:05:56;;;;;;;4.67;3.10;;;;;;;;;;4997548;28;20953;-79
2022/03/09 08:08:22;;;;;;;5.33;3.67;;;;;;;;;;5014551;28;20486;-78
2022/03/09 08:10:48;;;;;;;5.77;4.70;;;;;;;;;;4997599;28;20425;-78
2022/03/09 08:13:13;;;;;;;5.53;3.53;;;;;;;;;;5014730;28;20410;-78
2022/03/09 08:15:40;;;;;;;5.27;4.13;;;;;;;;;;5014969;28;20907;-78
2022/03/09 08:18:05;;;;;;;4.60;3.60;;;;;;;;;;5014948;28;20941;-78
2022/03/09 08:20:31;;;;;;;5.10;3.73;;;;;;;;;;5014966;28;20424;-79
2022/03/09 08:22:57;;;;;;;5.07;3.27;;;;;;;;;;5014854;28;20176;-78
2022/03/09 08:25:24;;;;;;;3.83;3.37;;;;;;;;;;5014630;28;20486;-78
2022/03/09 08:27:50;;;;;;;5.80;3.20;;;;;;;;;;5014457;28;20499;-78
2022/03/09 08:30:16;;;;;;;4.47;3.50;;;;;;;;;;5014720;28;20507;-78
2022/03/09 08:32:42;;;;;;;8.93;3.77;;;;;;;;;;5014678;28;20255;-78
2022/03/09 08:35:08;;;;;;;3.00;2.70;;;;;;;;;;5014602;28;20237;-78
2022/03/09 08:37:34;;;;;;;4.60;3.43;;;;;;;;;;5014697;28;20509;-78
2022/03/09 08:40:00;;;;;;;4.40;3.43;;;;;;;;;;5014510;28;20424;-78
2022/03/09 08:42:26;;;;;;;3.90;2.93;;;;;;;;;;5013896;28;20528;-78
2022/03/09 08:44:52;;;;;;;3.70;2.80;;;;;;;;;;5014398;28;20477;-78
2022/03/09 08:47:21;;;;;;;5.70;3.20;;;;;;;;;;5014452;28;20503;-78
2022/03/09 08:49:47;;;;;;;6.00;4.00;;;;;;;;;;5014345;28;20460;-79
2022/03/09 08:52:14;;;;;;;4.20;3.50;;;;;;;;;;5014393;28;20927;-79
2022/03/09 08:54:40;;;;;;;8.97;4.27;;;;;;;;;;5014259;28;20755;-78
2022/03/09 08:57:06;;;;;;;4.10;3.70;;;;;;;;;;5013933;28;20421;-79
2022/03/09 08:59:32;;;;;;;5.40;3.60;;;;;;;;;;5014244;28;20424;-80
2022/03/09 09:01:58;;;;;;;9.17;3.80;;;;;;;;;;5014262;28;20408;-80
2022/03/09 09:04:24;;;;;;;9.33;3.80;;;;;;;;;;5013999;28;20546;-80
2022/03/09 09:06:50;;;;;;;5.50;4.87;;;;;;;;;;5014032;28;20490;-78
2022/03/09 09:09:17;;;;;;;5.87;4.20;;;;;;;;;;5014148;28;20410;-76
2022/03/09 09:11:43;;;;;;;4.67;3.63;;;;;;;;;;5013613;28;20413;-76
2022/03/09 09:14:09;;;;;;;4.10;3.70;;;;;;;;;;4996328;28;20432;-77
2022/03/09 09:16:35;;;;;;;5.70;3.90;;;;;;;;;;5013888;28;20513;-77
2022/03/09 09:19:01;;;;;;;4.77;3.50;;;;;;;;;;5012999;28;20174;-77
2022/03/09 09:21:28;;;;;;;6.73;4.00;;;;;;;;;;5013669;28;20410;-78
2022/03/09 09:23:54;;;;;;;5.20;4.70;;;;;;;;;;5013703;28;20470;-77
2022/03/09 09:26:20;;;;;;;4.00;3.40;;;;;;;;;;4996202;28;20830;-78
2022/03/09 09:28:46;;;;;;;3.47;3.17;;;;;;;;;;4995690;28;20523;-78
2022/03/09 09:31:12;;;;;;;4.20;3.30;;;;;;;;;;5013576;28;20428;-78
2022/03/09 09:33:38;;;;;;;5.07;3.67;;;;;;;;;;5013726;28;20470;-78
2022/03/09 09:36:04;;;;;;;6.83;3.40;;;;;;;;;;5013506;28;20591;-77
2022/03/09 09:38:30;;;;;;;5.00;4.03;;;;;;;;;;5013560;28;20181;-77
2022/03/09 09:40:57;;;;;;;5.57;3.57;;;;;;;;;;5013563;28;20413;-78
2022/03/09 09:43:24;;;;;;;4.63;4.13;;;;;;;;;;5012945;28;20484;-78
2022/03/09 09:45:51;;;;;;;5.57;4.20;;;;;;;;;;5013453;28;20436;-78
2022/03/09 09:48:20;;;;;;;7.40;4.13;;;;;;;;;;5013337;28;20406;-77
2022/03/09 09:50:46;;;;;;;4.50;4.00;;;;;;;;;;5013335;28;20973;-78
2022/03/09 09:53:13;;;;;;;5.13;4.60;;;;;;;;;;5013127;28;20446;-78
2022/03/09 09:55:39;;;;;;;4.10;3.70;;;;;;;;;;5013060;28;20430;-79
2022/03/09 09:58:05;;;;;;;5.57;4.27;;;;;;;;;;5012571;28;20420;-78
2022/03/09 10:00:32;;;;;;;5.30;4.00;;;;;;;;;;5013179;28;20974;-78
2022/03/09 10:02:58;;;;;;;9.83;4.77;;;;;;;;;;5013098;28;20489;-78
2022/03/09 10:05:24;;;;;;;4.70;4.20;;;;;;;;;;5012853;28;20469;-77
2022/03/09 10:08:09;;;;;;;4.97;3.70;;;;;;;;;;5013011;28;20505;-78
2022/03/09 10:10:36;;;;;;;6.93;4.20;;;;;;;;;;5013027;28;20505;-78
2022/03/09 10:13:19;;;;;;;7.53;4.60;;;;;;;;;;5012678;28;20417;-77
2022/03/09 10:15:48;;;;;;;5.37;4.43;;;;;;;;;;5012944;28;20445;-79
2022/03/09 10:18:19;;;;;;;7.20;4.53;;;;;;;;;;4995290;28;20452;-78
2022/03/09 10:20:46;;;;;;;5.53;4.10;;;;;;;;;;4995384;28;20414;-78
2022/03/09 10:23:12;;;;;;;5.00;4.50;;;;;;;;;;5012906;28;20420;-78
2022/03/09 10:25:40;;;;;;;5.37;3.97;;;;;;;;;;5012964;28;20425;-78
2022/03/09 10:28:09;;;;;;;6.70;4.50;;;;;;;;;;5012487;28;20406;-78
2022/03/09 10:30:37;;;;;;;5.10;4.40;;;;;;;;;;5014107;28;20417;-79
2022/03/09 10:33:05;;;;;;;6.30;4.90;;;;;;;;;;5016932;28;20485;-79
2022/03/09 10:35:31;;;;;;;4.53;3.97;;;;;;;;;;5016842;28;20459;-78
2022/03/09 10:38:00;;;;;;;4.50;3.93;;;;;;;;;;5016831;28;20500;-79
2022/03/09 10:40:26;;;;;;;4.60;3.97;;;;;;;;;;5016671;28;20174;-78
2022/03/09 10:42:53;;;;;;;4.10;3.80;;;;;;;;;;5016070;28;20465;-77
2022/03/09 10:45:19;;;;;;;4.97;4.50;;;;;;;;;;5016541;28;20544;-79
2022/03/09 10:47:48;;;;;;;4.60;4.17;;;;;;;;;;5016378;28;20468;-78
2022/03/09 10:50:18;;;;;;;4.63;3.50;;;;;;;;;;5016460;28;21001;-78
2022/03/09 10:52:49;;;;;;;6.00;3.33;;;;;;;;;;5016451;28;20434;-79
2022/03/09 10:55:25;;;;;;;4.07;3.63;;;;;;;;;;4998957;28;20533;-79
2022/03/09 10:57:52;;;;;;;4.47;3.80;;;;;;;;;;5015976;28;20918;-79
2022/03/09 11:00:34;;;;;;;4.17;3.50;;;;;;;;;;5016295;28;20426;-78
2022/03/09 11:03:05;;;;;;;4.37;3.80;;;;;;;;;;5016325;28;20464;-78
2022/03/09 11:05:31;;;;;;;3.70;3.37;;;;;;;;;;5016305;28;20457;-78
2022/03/09 11:07:58;;;;;;;7.07;4.83;;;;;;;;;;5016231;28;20449;-79
2022/03/09 11:10:26;;;;;;;3.83;3.27;;;;;;;;;;4998579;28;20915;-78
2022/03/09 11:12:52;;;;;;;4.57;3.17;;;;;;;;;;5015820;28;20418;-78
2022/03/09 11:15:20;;;;;;;6.20;3.53;;;;;;;;;;5016020;28;20425;-78
2022/03/09 11:17:48;;;;;;;8.03;4.40;;;;;;;;;;5016049;28;20414;-79
2022/03/09 11:20:17;;;;;;;4.80;4.30;;;;;;;;;;5015980;28;20759;-78
2022/03/09 11:22:43;;;;;;;3.67;3.37;;;;;;;;;;5016232;28;20453;-79
2022/03/09 11:25:10;;;;;;;5.33;3.57;;;;;;;;;;5015872;28;20997;-78
2022/03/09 11:27:44;;;;;;;4.60;4.20;;;;;;;;;;5015421;28;20177;-79
2022/03/09 11:30:23;;;;;;;6.90;4.40;;;;;;;;;;5015758;28;20422;-78
2022/03/09 11:32:50;;;;;;;5.53;4.57;;;;;;;;;;5015845;28;20940;-79
2022/03/09 11:35:48;;;;;;;4.30;3.17;;;;;;;;;;5015520;28;20406;-78
2022/03/09 11:38:39;;;;;;;4.00;3.60;;;;;;;;;;5000807;28;20469;-79
2022/03/09 11:41:41;;;;;;;6.37;4.53;;;;;;;;;;5015319;28;20418;-79
2022/03/09 11:44:19;;;;;;;4.60;4.10;;;;;;;;;;4935681;29;20847;-79
2022/03/09 11:47:00;;;;;;;3.60;3.30;;;;;;;;;;4988747;28;20418;-80
2022/03/09 11:49:41;;;;;;;4.23;3.83;;;;;;;;;;5015303;28;20943;-79
2022/03/09 11:52:08;;;;;;;5.30;4.10;;;;;;;;;;5015394;28;20398;-79
2022/03/09 11:54:41;;;;;;;4.70;4.13;;;;;;;;;;5015228;28;20461;-79
2022/03/09 11:57:08;;;;;;;4.30;3.90;;;;;;;;;;5014971;28;20413;-79
2022/03/09 11:59:33;;;;;;;6.47;3.63;;;;;;;;;;5015310;28;20414;-80
2022/03/09 12:02:07;;;;;;;5.70;4.60;;;;;;;;;;5015219;28;20476;-79
2022/03/09 12:04:59;;;;;;;6.03;4.03;;;;;;;;;;5015056;28;20222;-79
2022/03/09 12:07:28;;;;;;;4.40;4.00;;;;;;;;;;5015067;28;20408;-79
2022/03/09 12:10:02;;;;;;;9.90;4.53;;;;;;;;;;5014973;28;20414;-80
2022/03/09 12:12:29;;;;;;;6.50;4.80;;;;;;;;;;5014705;28;20410;-79
2022/03/09 12:15:08;;;;;;;5.07;4.30;;;;;;;;;;5014911;28;20441;-79
2022/03/09 12:17:37;;;;;;;5.73;5.23;;;;;;;;;;5014912;28;20911;-80
2022/03/09 12:20:23;;;;;;;5.07;4.57;;;;;;;;;;5015051;28;20426;-79
2022/03/09 12:23:01;;;;;;;5.43;3.70;;;;;;;;;;5014778;28;20889;-79
2022/03/09 12:25:42;;;;;;;5.50;4.60;;;;;;;;;;5014791;28;20985;-79
2022/03/09 12:30:53;;;;;;;6.40;3.80;;;;;;;;;;5014674;28;20413;-79
2022/03/09 12:33:25;;;;;;;4.70;4.20;;;;;;;;;;5014557;28;20944;-79
2022/03/09 12:35:52;;;;;;;4.70;3.97;;;;;;;;;;5014614;28;20497;-79
2022/03/09 12:38:18;;;;;;;6.13;3.90;;;;;;;;;;5014545;28;20410;-79
2022/03/09 12:40:48;;;;;;;4.17;3.77;;;;;;;;;;5014494;28;20446;-79
2022/03/09 12:43:14;;;;;;;6.17;3.60;;;;;;;;;;5013851;28;20465;-79
2022/03/09 12:45:50;;;;;;;4.00;3.60;;;;;;;;;;4996738;28;20484;-79
2022/03/09 12:48:23;;;;;;;5.13;4.53;;;;;;;;;;5014267;28;20409;-78
2022/03/09 12:50:49;;;;;;;5.80;4.77;;;;;;;;;;5014226;28;20418;-78
2022/03/09 12:53:21;;;;;;;4.77;4.13;;;;;;;;;;5014000;28;20410;-79
2022/03/09 12:55:48;;;;;;;5.77;4.23;;;;;;;;;;5014102;28;20416;-79
2022/03/09 12:58:23;;;;;;;4.47;4.07;;;;;;;;;;4996055;28;20456;-78
2022/03/09 13:01:05;;;;;;;4.70;4.20;;;;;;;;;;4996422;28;20925;-79
2022/03/09 13:03:31;;;;;;;4.10;3.73;;;;;;;;;;5013950;28;20454;-78
2022/03/09 13:05:57;;;;;;;5.80;4.20;;;;;;;;;;5014028;28;20417;-79
2022/03/09 13:08:35;;;;;;;5.07;4.50;;;;;;;;;;5013634;28;20472;-79
2022/03/09 13:11:01;;;;;;;5.13;3.07;;;;;;;;;;5013512;28;20767;-79
2022/03/09 13:13:31;;;;;;;7.83;4.57;;;;;;;;;;5013802;28;20418;-79
2022/03/09 13:15:59;;;;;;;6.53;4.90;;;;;;;;;;5014235;28;20878;-79
2022/03/09 13:18:32;;;;;;;7.50;5.20;;;;;;;;;;5013869;28;20838;-79
2022/03/09 13:20:59;;;;;;;5.10;4.13;;;;;;;;;;5013683;28;20457;-78
2022/03/09 13:23:25;;;;;;;4.40;4.00;;;;;;;;;;5013712;28;20873;-79
2022/03/09 13:25:51;;;;;;;6.17;4.60;;;;;;;;;;5013190;28;20463;-79
2022/03/09 13:28:25;;;;;;;4.23;3.40;;;;;;;;;;5013545;28;20402;-79
2022/03/09 13:30:55;;;;;;;5.13;4.60;;;;;;;;;;5013646;28;20891;-79
2022/03/09 13:33:24;;;;;;;5.57;4.10;;;;;;;;;;4995891;28;20421;-79
2022/03/09 13:35:51;;;;;;;5.63;4.30;;;;;;;;;;5013546;28;20415;-79
2022/03/09 13:38:24;;;;;;;7.13;4.60;;;;;;;;;;5013634;28;20417;-79
2022/03/09 13:41:11;;;;;;;6.27;4.00;;;;;;;;;;4995426;28;20421;-79
2022/03/09 13:43:37;;;;;;;5.10;4.10;;;;;;;;;;5013040;28;20476;-78
2022/03/09 13:46:17;;;;;;;6.40;4.87;;;;;;;;;;5013428;28;20417;-78
2022/03/09 13:48:43;;;;;;;6.27;4.30;;;;;;;;;;5013222;28;20412;-78
2022/03/09 13:51:09;;;;;;;8.23;4.20;;;;;;;;;;5013378;28;20423;-79
2022/03/09 13:53:39;;;;;;;5.47;3.60;;;;;;;;;;5013139;28;20829;-79
2022/03/09 13:56:18;;;;;;;7.27;4.57;;;;;;;;;;5013109;28;20439;-79
2022/03/09 13:58:44;;;;;;;6.07;4.10;;;;;;;;;;5013330;28;20420;-78
2022/03/09 14:01:12;;;;;;;3.73;3.00;;;;;;;;;;5013133;28;20422;-78
2022/03/09 14:03:41;;;;;;;6.00;3.80;;;;;;;;;;5013142;28;20815;-78
2022/03/09 14:06:15;;;;;;;5.80;4.30;;;;;;;;;;5012598;28;20443;-78
2022/03/09 14:08:41;;;;;;;5.23;4.23;;;;;;;;;;4995554;28;20422;-78
2022/03/09 14:11:08;;;;;;;5.50;4.20;;;;;;;;;;5012812;28;20423;-78
2022/03/09 14:13:35;;;;;;;6.60;4.30;;;;;;;;;;5013058;28;20408;-78
2022/03/09 14:16:01;;;;;;;6.00;3.83;;;;;;;;;;5013065;28;20507;-79
2022/03/09 14:18:27;;;;;;;4.90;4.30;;;;;;;;;;5012997;28;20503;-79
2022/03/09 14:20:53;;;;;;;5.27;4.33;;;;;;;;;;5013001;28;20427;-79
2022/03/09 14:23:19;;;;;;;4.40;4.00;;;;;;;;;;4995254;28;20428;-79
2022/03/09 14:25:45;;;;;;;6.07;4.83;;;;;;;;;;4995045;28;20434;-78
2022/03/09 14:28:11;;;;;;;5.27;3.80;;;;;;;;;;5012882;28;20410;-78
2022/03/09 14:30:37;;;;;;;6.10;4.37;;;;;;;;;;5012850;28;20822;-78
2022/03/09 14:33:06;;;;;;;4.80;3.67;;;;;;;;;;5012891;28;20485;-79
2022/03/09 14:35:32;;;;;;;6.40;4.23;;;;;;;;;;5012730;28;20991;-79
2022/03/09 14:37:58;;;;;;;4.80;3.23;;;;;;;;;;5012788;28;20489;-79
2022/03/09 14:40:26;;;;;;;5.67;4.20;;;;;;;;;;5012696;28;20411;-78
2022/03/09 14:42:52;;;;;;;5.53;4.17;;;;;;;;;;5012194;28;20461;-79
2022/03/09 14:45:19;;;;;;;5.20;4.70;;;;;;;;;;5012750;28;20482;-78
2022/03/09 14:47:46;;;;;;;4.00;3.60;;;;;;;;;;5013301;28;20445;-78
2022/03/09 14:50:12;;;;;;;7.07;4.40;;;;;;;;;;5008142;28;20441;-79
2022/03/09 14:52:38;;;;;;;7.27;4.17;;;;;;;;;;5016666;28;20759;-78